Radar strel več informacij blitzortung!


Radar padavin  rain snow radar


Obiščite še:

Template documentation
and downloads

And another site



METAR v bližini

   
LJLJ - Ljubljana
Posodobljeno: 18-11-2017 14:30
oblačno  
oblačno  
   Veter: različen 3.7 km/h
Veter: različen 3.7 km/h
Temperatura: 6°C
Točka rosišča: 3°C
Vlažnost: 81%
Zračni tlak: 1019 hPa
Oblaki: oblačno
Vidljivost: More than 10 km
Podrobnosti o oblakih: pretežno oblačno 548.6 m,
oblačno 731.5 m
LJLJ 181330Z VRB02KT 9999 BKN018 OVC024 06/03 Q1019 NOSIG
LJCE - Cerklje ob Krki
Posodobljeno: 18-11-2017 14:30
pretežno oblačno  
pretežno oblačno  
   Veter: Jug 5.6 km/h
Veter: Jug 5.6 km/h
Temperatura: 7°C
Občutek mraza: 6°C
Točka rosišča: 4°C
Vlažnost: 81%
Zračni tlak: 1019 hPa
Oblaki: pretežno oblačno
Vidljivost: More than 10 km
Podrobnosti o oblakih: nekaj oblakov 396.2 m,
pretežno oblačno 2133.6 m
LJCE 181330Z 17003KT 9999 FEW013 BKN070 07/04 Q1019 RMK BLU
LJMB - Maribor
Posodobljeno: 18-11-2017 14:30
pretežno oblačno  
pretežno oblačno  
   Veter: JJZ 7.4 km/h
Veter: JJZ 7.4 km/h
Temperatura: 8°C
Občutek mraza: 7°C
Točka rosišča: 3°C
Vlažnost: 71%
Zračni tlak: 1019 hPa
Oblaki: pretežno oblačno
Vidljivost: More than 10 km
Podrobnosti o oblakih: nekaj oblakov 792.5 m,
pretežno oblačno 2743.2 m
LJMB 181330Z 20004KT 160V230 9999 FEW026 BKN090 08/03 Q1019
LJPZ - Portorož
Posodobljeno: 18-11-2017 14:30
jasno  
jasno  
   Veter: SV 18.5 km/h
Veter: SV 18.5 km/h
Temperatura: 15°C
Točka rosišča: 2°C
Vlažnost: 42%
Zračni tlak: 1016 hPa
Vidljivost: More than 10 km
Podrobnosti o oblakih: jasno
LJPZ 181330Z 05010KT CAVOK 15/02 Q1016
LDRI - Rijeka, Airport, Croatia
Posodobljeno: 18-11-2017 14:30
nekaj oblakov  
nekaj oblakov  
   Veter: VSV 20.4 km/h<br />Gust to 20.4 km/h
Veter: VSV 20.4 km/h
Gust to 20.4 km/h
Temperatura: 11°C
Točka rosišča: 2°C
Vlažnost: 54%
Zračni tlak: 1016 hPa
Oblaki: nekaj oblakov
Vidljivost: More than 10 km
Podrobnosti o oblakih: nekaj oblakov 1402.1 m
LDRI 181330Z 07011G21KT 030V130 9999 FEW046 11/02 Q1016
LOWK - Klagenfurt, Airport, Avstia
Posodobljeno: 18-11-2017 14:20
delno oblačno  
delno oblačno  
   Veter: VSV 7.4 km/h
Veter: VSV 7.4 km/h
Temperatura: 7°C
Občutek mraza: 6°C
Točka rosišča: 3°C
Vlažnost: 76%
Zračni tlak: 1018 hPa
Oblaki: delno oblačno
Vidljivost: More than 10 km
Podrobnosti o oblakih: nekaj oblakov 365.8 m,
delno oblačno 457.2 m
LOWK 181320Z 07004KT 040V120 9999 FEW012 SCT015 07/03 Q1018 R10L/19//95 NOSIG

Script developed by  Saratoga-weather.org Adapted for the template by  Weerstation Leuven

Oprema, ki se uporablja:

Vremenska postaja
AERCUS WH 3083

Vremenski program
Cumulus

AERCUS WH 3083

Cumulus